sensor_id;sensor_type;location;lat;lon;timestamp;P1;durP1;ratioP1;P2;durP2;ratioP2
48026;SDS011;50714;49.208;5.364;2023-07-31T00:06:26;1.42;;;1.20;;
48026;SDS011;50714;49.208;5.364;2023-07-31T00:16:27;2.67;;;1.83;;
48026;SDS011;50714;49.208;5.364;2023-07-31T00:26:27;2.87;;;1.70;;
48026;SDS011;50714;49.208;5.364;2023-07-31T00:36:28;2.67;;;1.55;;
48026;SDS011;50714;49.208;5.364;2023-07-31T00:46:28;2.13;;;1.27;;
48026;SDS011;50714;49.208;5.364;2023-07-31T00:56:28;2.25;;;1.55;;
48026;SDS011;50714;49.208;5.364;2023-07-31T01:06:53;3.28;;;1.52;;
48026;SDS011;50714;49.208;5.364;2023-07-31T01:16:49;2.78;;;1.60;;
48026;SDS011;50714;49.208;5.364;2023-07-31T01:26:55;2.03;;;1.20;;
48026;SDS011;50714;49.208;5.364;2023-07-31T01:36:58;3.42;;;1.50;;
48026;SDS011;50714;49.208;5.364;2023-07-31T01:46:58;2.45;;;1.63;;
48026;SDS011;50714;49.208;5.364;2023-07-31T01:57:00;2.40;;;1.40;;
48026;SDS011;50714;49.208;5.364;2023-07-31T02:07:00;3.13;;;1.40;;
48026;SDS011;50714;49.208;5.364;2023-07-31T02:17:00;3.13;;;1.60;;
48026;SDS011;50714;49.208;5.364;2023-07-31T02:27:01;2.72;;;1.50;;
48026;SDS011;50714;49.208;5.364;2023-07-31T02:37:01;2.10;;;1.50;;
48026;SDS011;50714;49.208;5.364;2023-07-31T02:47:01;3.65;;;1.63;;
48026;SDS011;50714;49.208;5.364;2023-07-31T02:57:03;1.75;;;1.27;;
48026;SDS011;50714;49.208;5.364;2023-07-31T03:07:04;3.75;;;1.75;;
48026;SDS011;50714;49.208;5.364;2023-07-31T03:17:05;2.47;;;1.40;;
48026;SDS011;50714;49.208;5.364;2023-07-31T03:27:06;5.07;;;1.90;;
48026;SDS011;50714;49.208;5.364;2023-07-31T03:37:06;4.15;;;1.88;;
48026;SDS011;50714;49.208;5.364;2023-07-31T03:47:06;1.98;;;1.50;;
48026;SDS011;50714;49.208;5.364;2023-07-31T03:57:07;2.00;;;1.30;;
48026;SDS011;50714;49.208;5.364;2023-07-31T04:07:07;3.63;;;1.45;;
48026;SDS011;50714;49.208;5.364;2023-07-31T04:17:07;3.00;;;1.50;;
48026;SDS011;50714;49.208;5.364;2023-07-31T04:27:08;2.30;;;1.40;;
48026;SDS011;50714;49.208;5.364;2023-07-31T04:37:08;2.15;;;1.50;;
48026;SDS011;50714;49.208;5.364;2023-07-31T04:47:08;2.00;;;1.42;;
48026;SDS011;50714;49.208;5.364;2023-07-31T04:57:09;1.63;;;1.30;;
48026;SDS011;50714;49.208;5.364;2023-07-31T05:07:09;2.38;;;1.40;;
48026;SDS011;50714;49.208;5.364;2023-07-31T05:17:09;2.47;;;1.35;;
48026;SDS011;50714;49.208;5.364;2023-07-31T05:27:10;3.58;;;1.70;;
48026;SDS011;50714;49.208;5.364;2023-07-31T05:37:10;3.45;;;1.48;;
48026;SDS011;50714;49.208;5.364;2023-07-31T05:47:11;2.78;;;1.30;;
48026;SDS011;50714;49.208;5.364;2023-07-31T05:57:12;3.35;;;1.50;;
48026;SDS011;50714;49.208;5.364;2023-07-31T06:07:12;2.60;;;1.40;;
48026;SDS011;50714;49.208;5.364;2023-07-31T06:17:13;2.72;;;1.40;;
48026;SDS011;50714;49.208;5.364;2023-07-31T06:27:13;3.80;;;1.77;;
48026;SDS011;50714;49.208;5.364;2023-07-31T06:37:13;3.65;;;1.60;;
48026;SDS011;50714;49.208;5.364;2023-07-31T06:47:13;2.40;;;1.90;;
48026;SDS011;50714;49.208;5.364;2023-07-31T06:57:14;3.03;;;1.77;;
48026;SDS011;50714;49.208;5.364;2023-07-31T07:07:14;4.38;;;2.20;;
48026;SDS011;50714;49.208;5.364;2023-07-31T07:17:14;2.72;;;1.73;;
48026;SDS011;50714;49.208;5.364;2023-07-31T07:27:15;2.67;;;1.48;;
48026;SDS011;50714;49.208;5.364;2023-07-31T07:37:15;2.08;;;1.17;;
48026;SDS011;50714;49.208;5.364;2023-07-31T07:47:16;2.90;;;1.50;;
48026;SDS011;50714;49.208;5.364;2023-07-31T07:57:16;2.30;;;1.30;;
48026;SDS011;50714;49.208;5.364;2023-07-31T08:07:17;2.92;;;1.55;;
48026;SDS011;50714;49.208;5.364;2023-07-31T08:17:17;1.95;;;1.30;;
48026;SDS011;50714;49.208;5.364;2023-07-31T08:27:17;2.05;;;1.05;;
48026;SDS011;50714;49.208;5.364;2023-07-31T08:37:18;2.97;;;1.20;;
48026;SDS011;50714;49.208;5.364;2023-07-31T08:47:19;2.20;;;1.40;;
48026;SDS011;50714;49.208;5.364;2023-07-31T08:57:20;2.15;;;1.33;;
48026;SDS011;50714;49.208;5.364;2023-07-31T09:07:21;2.45;;;1.42;;
48026;SDS011;50714;49.208;5.364;2023-07-31T09:17:58;2.70;;;1.50;;
48026;SDS011;50714;49.208;5.364;2023-07-31T09:28:02;2.15;;;1.40;;
48026;SDS011;50714;49.208;5.364;2023-07-31T09:38:03;2.35;;;1.38;;
48026;SDS011;50714;49.208;5.364;2023-07-31T09:48:12;2.72;;;1.95;;
48026;SDS011;50714;49.208;5.364;2023-07-31T09:58:15;2.03;;;1.50;;
48026;SDS011;50714;49.208;5.364;2023-07-31T10:08:17;2.15;;;1.42;;
48026;SDS011;50714;49.208;5.364;2023-07-31T10:18:20;2.28;;;1.40;;
48026;SDS011;50714;49.208;5.364;2023-07-31T10:28:21;2.08;;;1.50;;
48026;SDS011;50714;49.208;5.364;2023-07-31T10:38:21;2.15;;;1.25;;
48026;SDS011;50714;49.208;5.364;2023-07-31T10:48:23;2.42;;;1.40;;
48026;SDS011;50714;49.208;5.364;2023-07-31T10:58:24;2.33;;;1.65;;
48026;SDS011;50714;49.208;5.364;2023-07-31T11:08:28;2.80;;;1.67;;
48026;SDS011;50714;49.208;5.364;2023-07-31T11:18:29;2.60;;;1.52;;
48026;SDS011;50714;49.208;5.364;2023-07-31T11:28:33;3.42;;;1.88;;
48026;SDS011;50714;49.208;5.364;2023-07-31T11:38:34;2.65;;;1.60;;
48026;SDS011;50714;49.208;5.364;2023-07-31T11:48:36;3.22;;;2.10;;
48026;SDS011;50714;49.208;5.364;2023-07-31T11:58:37;2.95;;;1.80;;
48026;SDS011;50714;49.208;5.364;2023-07-31T12:08:38;2.88;;;2.00;;
48026;SDS011;50714;49.208;5.364;2023-07-31T12:18:39;3.92;;;1.80;;
48026;SDS011;50714;49.208;5.364;2023-07-31T12:38:45;3.88;;;1.80;;
48026;SDS011;50714;49.208;5.364;2023-07-31T12:48:46;3.47;;;1.98;;
48026;SDS011;50714;49.208;5.364;2023-07-31T12:58:46;2.85;;;1.73;;
48026;SDS011;50714;49.208;5.364;2023-07-31T13:08:46;3.58;;;1.95;;
48026;SDS011;50714;49.208;5.364;2023-07-31T13:18:47;4.25;;;2.15;;
48026;SDS011;50714;49.208;5.364;2023-07-31T13:28:47;4.82;;;2.80;;
48026;SDS011;50714;49.208;5.364;2023-07-31T13:38:47;2.67;;;1.98;;
48026;SDS011;50714;49.208;5.364;2023-07-31T13:48:48;4.93;;;2.50;;
48026;SDS011;50714;49.208;5.364;2023-07-31T13:58:48;3.28;;;2.25;;
48026;SDS011;50714;49.208;5.364;2023-07-31T14:08:48;3.60;;;1.88;;
48026;SDS011;50714;49.208;5.364;2023-07-31T14:18:49;3.30;;;2.20;;
48026;SDS011;50714;49.208;5.364;2023-07-31T14:28:49;4.20;;;2.40;;
48026;SDS011;50714;49.208;5.364;2023-07-31T14:38:49;4.30;;;2.50;;
48026;SDS011;50714;49.208;5.364;2023-07-31T14:48:50;3.97;;;2.60;;
48026;SDS011;50714;49.208;5.364;2023-07-31T14:58:50;4.05;;;2.50;;
48026;SDS011;50714;49.208;5.364;2023-07-31T15:08:50;3.97;;;2.40;;
48026;SDS011;50714;49.208;5.364;2023-07-31T15:18:51;3.92;;;2.60;;
48026;SDS011;50714;49.208;5.364;2023-07-31T15:28:55;3.55;;;2.38;;
48026;SDS011;50714;49.208;5.364;2023-07-31T15:39:00;4.70;;;2.45;;
48026;SDS011;50714;49.208;5.364;2023-07-31T15:49:00;5.75;;;2.67;;
48026;SDS011;50714;49.208;5.364;2023-07-31T15:59:01;4.05;;;2.50;;
48026;SDS011;50714;49.208;5.364;2023-07-31T16:09:01;3.90;;;2.33;;
48026;SDS011;50714;49.208;5.364;2023-07-31T16:19:02;3.42;;;2.10;;
48026;SDS011;50714;49.208;5.364;2023-07-31T16:29:02;3.90;;;2.28;;
48026;SDS011;50714;49.208;5.364;2023-07-31T16:39:02;4.25;;;2.42;;
48026;SDS011;50714;49.208;5.364;2023-07-31T16:49:03;3.70;;;2.33;;
48026;SDS011;50714;49.208;5.364;2023-07-31T16:59:04;3.50;;;2.42;;
48026;SDS011;50714;49.208;5.364;2023-07-31T17:09:04;3.53;;;2.35;;
48026;SDS011;50714;49.208;5.364;2023-07-31T17:19:05;3.08;;;2.30;;
48026;SDS011;50714;49.208;5.364;2023-07-31T17:29:05;3.85;;;2.20;;
48026;SDS011;50714;49.208;5.364;2023-07-31T17:39:05;2.38;;;1.70;;
48026;SDS011;50714;49.208;5.364;2023-07-31T17:49:06;2.78;;;2.10;;
48026;SDS011;50714;49.208;5.364;2023-07-31T17:59:06;3.33;;;2.00;;
48026;SDS011;50714;49.208;5.364;2023-07-31T18:09:08;4.18;;;2.22;;
48026;SDS011;50714;49.208;5.364;2023-07-31T18:19:10;3.88;;;2.10;;
48026;SDS011;50714;49.208;5.364;2023-07-31T18:29:10;3.22;;;2.03;;
48026;SDS011;50714;49.208;5.364;2023-07-31T18:39:10;3.25;;;2.00;;
48026;SDS011;50714;49.208;5.364;2023-07-31T18:49:11;3.63;;;2.10;;
48026;SDS011;50714;49.208;5.364;2023-07-31T18:59:11;4.27;;;2.30;;
48026;SDS011;50714;49.208;5.364;2023-07-31T19:09:12;3.92;;;2.53;;
48026;SDS011;50714;49.208;5.364;2023-07-31T19:19:12;3.70;;;2.25;;
48026;SDS011;50714;49.208;5.364;2023-07-31T19:29:14;3.85;;;2.40;;
48026;SDS011;50714;49.208;5.364;2023-07-31T19:39:15;4.28;;;2.40;;
48026;SDS011;50714;49.208;5.364;2023-07-31T19:49:15;3.72;;;2.42;;
48026;SDS011;50714;49.208;5.364;2023-07-31T19:59:16;3.72;;;2.50;;
48026;SDS011;50714;49.208;5.364;2023-07-31T20:09:16;4.25;;;2.83;;
48026;SDS011;50714;49.208;5.364;2023-07-31T20:19:16;6.43;;;3.10;;
48026;SDS011;50714;49.208;5.364;2023-07-31T20:29:17;4.85;;;3.25;;
48026;SDS011;50714;49.208;5.364;2023-07-31T20:39:17;5.82;;;3.78;;
48026;SDS011;50714;49.208;5.364;2023-07-31T20:49:17;5.25;;;3.45;;
48026;SDS011;50714;49.208;5.364;2023-07-31T20:59:18;5.35;;;3.13;;
48026;SDS011;50714;49.208;5.364;2023-07-31T21:09:18;5.93;;;3.40;;
48026;SDS011;50714;49.208;5.364;2023-07-31T21:19:19;5.03;;;3.22;;
48026;SDS011;50714;49.208;5.364;2023-07-31T21:29:19;4.40;;;2.92;;
48026;SDS011;50714;49.208;5.364;2023-07-31T21:39:19;4.40;;;2.88;;
48026;SDS011;50714;49.208;5.364;2023-07-31T21:49:20;5.18;;;3.40;;
48026;SDS011;50714;49.208;5.364;2023-07-31T21:59:20;5.25;;;3.60;;
48026;SDS011;50714;49.208;5.364;2023-07-31T22:09:21;5.30;;;3.20;;
48026;SDS011;50714;49.208;5.364;2023-07-31T22:19:21;4.93;;;3.08;;
48026;SDS011;50714;49.208;5.364;2023-07-31T22:29:21;5.00;;;2.78;;
48026;SDS011;50714;49.208;5.364;2023-07-31T22:39:23;4.47;;;3.10;;
48026;SDS011;50714;49.208;5.364;2023-07-31T22:49:23;3.92;;;2.63;;
48026;SDS011;50714;49.208;5.364;2023-07-31T22:59:23;3.65;;;2.10;;
48026;SDS011;50714;49.208;5.364;2023-07-31T23:09:24;2.50;;;1.80;;
48026;SDS011;50714;49.208;5.364;2023-07-31T23:19:24;2.10;;;1.77;;
48026;SDS011;50714;49.208;5.364;2023-07-31T23:29:25;2.33;;;1.90;;
48026;SDS011;50714;49.208;5.364;2023-07-31T23:39:25;3.92;;;2.20;;
48026;SDS011;50714;49.208;5.364;2023-07-31T23:49:26;3.72;;;2.10;;
48026;SDS011;50714;49.208;5.364;2023-07-31T23:59:26;3.08;;;2.40;;
